Time,TemperatureF,DewpointF,PressureIn,WindDirection,WindDirectionDegrees,WindSpeedMPH,WindSpeedGustMPH,Humidity,HourlyPrecipIn,Conditions,Clouds,dailyrainin,SoftwareType,DateUTC
2013-10-14 00:00:00,63.9,30.1,30.33,NNE,22,2.5,5.4,28,0.00,,,0.00,VWS V14.01,2013-10-14 04:00:00,
2013-10-14 00:02:00,62.4,29.8,30.36,NNW,338,0.0,0.0,29,0.00,,BKN250,0.00,VWS V14.01,2013-10-14 04:02:00,
2013-10-14 00:07:00,62.2,29.6,30.36,NW,315,0.0,0.0,29,0.00,,BKN250,0.00,VWS V14.01,2013-10-14 04:07:00,
2013-10-14 00:27:00,61.2,32.6,30.36,North,0,0.0,0.0,34,0.00,,BKN250,0.00,VWS V14.01,2013-10-14 04:27:00,
2013-10-14 00:32:00,61.0,31.7,30.36,NNE,22,1.1,1.1,33,0.00,,BKN250,0.00,VWS V14.01,2013-10-14 04:32:00,
2013-10-14 00:37:00,61.0,31.7,30.33,North,0,2.5,2.5,33,0.00,,BKN250,0.00,VWS V14.01,2013-10-14 04:37:00,
2013-10-14 00:42:00,61.0,31.7,30.33,WNW,292,0.0,2.5,33,0.00,,BKN250,0.00,VWS V14.01,2013-10-14 04:42:00,
2013-10-14 00:47:00,61.0,31.7,30.33,NNW,338,1.6,1.6,33,0.00,,BKN250,0.00,VWS V14.01,2013-10-14 04:47:00,
2013-10-14 00:52:00,61.0,31.7,30.33,NW,315,1.1,1.6,33,0.00,,BKN250,0.00,VWS V14.01,2013-10-14 04:52:00,
2013-10-14 00:57:00,60.8,31.5,30.33,NNW,338,0.0,1.1,33,0.00,,BKN250,0.00,VWS V14.01,2013-10-14 04:57:00,
2013-10-14 01:02:00,60.8,31.5,30.33,NNE,22,1.3,1.3,33,0.00,,BKN250,0.00,VWS V14.01,2013-10-14 05:02:00,
2013-10-14 01:07:00,60.8,31.5,30.33,NNE,22,2.7,2.7,33,0.00,,BKN250,0.00,VWS V14.01,2013-10-14 05:07:00,
2013-10-14 01:12:00,60.8,30.0,30.33,North,0,4.0,4.0,31,0.00,,BKN250,0.00,VWS V14.01,2013-10-14 05:12:00,
2013-10-14 01:17:00,61.0,30.9,30.33,NW,315,2.9,4.0,32,0.00,,BKN250,0.00,VWS V14.01,2013-10-14 05:17:00,
2013-10-14 01:22:00,61.0,30.9,30.33,NNE,22,3.6,3.6,32,0.00,,BKN250,0.00,VWS V14.01,2013-10-14 05:22:00,
2013-10-14 01:27:00,61.2,32.6,30.36,North,0,0.0,0.0,34,0.00,,,0.00,VWS V14.01,2013-10-14 05:27:00,
2013-10-14 01:32:00,60.8,30.8,30.33,NNE,22,2.9,3.6,32,0.00,,BKN250,0.00,VWS V14.01,2013-10-14 05:32:00,
2013-10-14 01:37:00,60.6,30.6,30.33,NNE,22,2.7,2.9,32,0.00,,BKN250,0.00,VWS V14.01,2013-10-14 05:37:00,
2013-10-14 01:42:00,60.6,31.4,30.33,NW,315,0.9,2.7,33,0.00,,BKN250,0.00,VWS V14.01,2013-10-14 05:42:00,
2013-10-14 01:47:00,60.4,32.0,30.33,NNW,338,2.0,2.0,34,0.00,,BKN250,0.00,VWS V14.01,2013-10-14 05:47:00,
2013-10-14 01:52:00,60.4,32.0,30.30,North,0,2.0,2.0,34,0.00,,BKN250,0.00,VWS V14.01,2013-10-14 05:52:00,
2013-10-14 01:57:00,60.3,31.8,30.30,North,0,0.0,2.0,34,0.00,,BKN250,0.00,VWS V14.01,2013-10-14 05:57:00,
2013-10-14 02:02:00,60.1,31.6,30.30,North,0,2.0,2.0,34,0.00,,BKN250,0.00,VWS V14.01,2013-10-14 06:02:00,
2013-10-14 02:07:00,59.9,31.5,30.33,NNW,338,1.3,2.0,34,0.00,,BKN250,0.00,VWS V14.01,2013-10-14 06:07:00,
2013-10-14 02:12:00,59.7,31.3,30.33,NNW,338,2.0,2.0,34,0.00,,BKN250,0.00,VWS V14.01,2013-10-14 06:12:00,
2013-10-14 02:17:00,59.5,31.2,30.33,NW,315,0.9,2.0,34,0.00,,BKN250,0.00,VWS V14.01,2013-10-14 06:17:00,
2013-10-14 02:22:00,59.4,31.0,30.30,NNW,338,2.0,2.0,34,0.00,,BKN250,0.00,VWS V14.01,2013-10-14 06:22:00,
2013-10-14 02:27:00,59.4,31.7,30.30,NW,315,0.0,2.0,35,0.00,,BKN250,0.00,VWS V14.01,2013-10-14 06:27:00,
2013-10-14 02:32:00,59.2,31.6,30.30,ENE,68,2.9,2.9,35,0.00,,BKN250,0.00,VWS V14.01,2013-10-14 06:32:00,
2013-10-14 02:37:00,59.0,31.4,30.33,North,0,2.5,2.9,35,0.00,,BKN250,0.00,VWS V14.01,2013-10-14 06:37:00,
2013-10-14 02:42:00,59.0,31.4,30.33,NNE,22,3.1,3.1,35,0.00,,BKN250,0.00,VWS V14.01,2013-10-14 06:42:00,
2013-10-14 02:47:00,58.8,31.2,30.33,NNW,338,2.7,3.1,35,0.00,,BKN250,0.00,VWS V14.01,2013-10-14 06:47:00,
2013-10-14 02:52:00,58.8,31.2,30.33,NNE,22,6.0,6.0,35,0.00,,BKN250,0.00,VWS V14.01,2013-10-14 06:52:00,
2013-10-14 02:57:00,58.8,31.2,30.33,NNE,22,1.1,6.0,35,0.00,,BKN250,0.00,VWS V14.01,2013-10-14 06:57:00,
2013-10-14 03:02:00,58.6,31.1,30.33,NW,315,2.2,2.2,35,0.00,,BKN250,0.00,VWS V14.01,2013-10-14 07:02:00,
2013-10-14 03:07:00,58.6,31.1,30.33,North,0,3.4,3.4,35,0.00,,BKN250,0.00,VWS V14.01,2013-10-14 07:07:00,
2013-10-14 03:12:00,58.5,30.9,30.33,North,0,5.8,5.8,35,0.00,,BKN250,0.00,VWS V14.01,2013-10-14 07:12:00,
2013-10-14 03:17:00,58.5,30.9,30.33,NNW,338,2.0,5.8,35,0.00,,BKN250,0.00,VWS V14.01,2013-10-14 07:17:00,
2013-10-14 03:22:00,58.5,30.9,30.36,NNE,22,4.0,4.0,35,0.00,,BKN250,0.00,VWS V14.01,2013-10-14 07:22:00,
2013-10-14 03:27:00,58.3,30.8,30.36,NNE,22,2.0,4.0,35,0.00,,BKN250,0.00,VWS V14.01,2013-10-14 07:27:00,
2013-10-14 03:32:00,58.1,30.6,30.36,NNE,22,4.7,4.7,35,0.00,,BKN250,0.00,VWS V14.01,2013-10-14 07:32:00,
2013-10-14 03:37:00,58.1,30.6,30.36,North,0,4.3,4.7,35,0.00,,BKN250,0.00,VWS V14.01,2013-10-14 07:37:00,
2013-10-14 03:42:00,58.1,31.3,30.36,ENE,68,1.1,4.3,36,0.00,,BKN250,0.00,VWS V14.01,2013-10-14 07:42:00,
2013-10-14 03:47:00,57.9,31.1,30.36,NW,315,2.7,2.7,36,0.00,,BKN250,0.00,VWS V14.01,2013-10-14 07:47:00,
2013-10-14 03:52:00,57.7,31.0,30.33,NNW,338,2.0,2.7,36,0.00,,BKN250,0.00,VWS V14.01,2013-10-14 07:52:00,
2013-10-14 03:57:00,57.7,31.0,30.33,NNW,338,3.6,3.6,36,0.00,,BKN250,0.00,VWS V14.01,2013-10-14 07:57:00,
2013-10-14 04:02:00,57.6,30.8,30.33,NNE,22,4.3,4.3,36,0.00,,BKN250,0.00,VWS V14.01,2013-10-14 08:02:00,
2013-10-14 04:07:00,57.4,30.7,30.36,North,0,4.0,4.3,36,0.00,,BKN250,0.00,VWS V14.01,2013-10-14 08:07:00,
2013-10-14 04:12:00,57.4,31.3,30.36,WSW,248,3.4,4.0,37,0.00,,BKN250,0.00,VWS V14.01,2013-10-14 08:12:00,
2013-10-14 04:17:00,57.2,31.2,30.36,NW,315,2.7,3.4,37,0.00,,BKN250,0.00,VWS V14.01,2013-10-14 08:17:00,
2013-10-14 04:22:00,57.0,31.7,30.33,NNW,338,2.5,2.7,38,0.00,,BKN250,0.00,VWS V14.01,2013-10-14 08:22:00,
2013-10-14 04:27:00,57.0,31.7,30.33,North,0,2.5,2.5,38,0.00,,BKN250,0.00,VWS V14.01,2013-10-14 08:27:00,
2013-10-14 04:32:00,56.8,31.5,30.33,NNW,338,3.6,3.6,38,0.00,,OVC044,0.00,VWS V14.01,2013-10-14 08:32:00,
2013-10-14 04:37:00,56.7,32.0,30.36,NNE,22,5.4,5.4,39,0.00,,BKN250,0.00,VWS V14.01,2013-10-14 08:37:00,
2013-10-14 04:42:00,56.5,31.8,30.36,North,0,3.8,5.4,39,0.00,,BKN250,0.00,VWS V14.01,2013-10-14 08:42:00,
2013-10-14 04:47:00,56.5,31.8,30.36,NNW,338,3.1,3.8,39,0.00,,BKN250,0.00,VWS V14.01,2013-10-14 08:47:00,
2013-10-14 04:52:00,56.3,31.7,30.36,NNW,338,0.0,3.1,39,0.00,,BKN250,0.00,VWS V14.01,2013-10-14 08:52:00,
2013-10-14 04:57:00,56.3,32.3,30.36,NNW,338,1.3,1.3,40,0.00,,BKN250,0.00,VWS V14.01,2013-10-14 08:57:00,
2013-10-14 05:02:00,56.1,32.2,30.36,North,0,2.7,2.7,40,0.00,,BKN250,0.00,VWS V14.01,2013-10-14 09:02:00,
2013-10-14 05:07:00,55.9,32.0,30.36,ENE,68,2.9,2.9,40,0.00,,BKN250,0.00,VWS V14.01,2013-10-14 09:07:00,
2013-10-14 05:12:00,55.9,32.0,30.36,NNE,22,2.5,2.9,40,0.00,,BKN250,0.00,VWS V14.01,2013-10-14 09:12:00,
2013-10-14 05:17:00,55.9,32.6,30.36,NW,315,3.6,3.6,41,0.00,,BKN250,0.00,VWS V14.01,2013-10-14 09:17:00,
2013-10-14 05:22:00,55.8,33.0,30.39,North,0,1.3,3.6,42,0.00,,BKN250,0.00,VWS V14.01,2013-10-14 09:22:00,
2013-10-14 05:27:00,55.8,32.4,30.39,NNE,22,1.6,1.6,41,0.00,,OVC044,0.00,VWS V14.01,2013-10-14 09:27:00,
2013-10-14 05:32:00,62.2,29.6,30.36,NW,315,0.0,0.0,29,0.00,,BKN250,0.00,VWS V14.01,2013-10-14 09:32:00,
2013-10-14 05:34:00,55.8,33.0,30.39,NNE,22,2.5,2.7,42,0.00,,BKN250,0.00,VWS V14.01,2013-10-14 09:34:00,
2013-10-14 05:37:00,56.7,32.0,30.36,NNE,22,5.4,5.4,39,0.00,,,0.00,VWS V14.01,2013-10-14 09:37:00,
2013-10-14 05:39:00,55.8,32.4,30.36,NW,315,2.0,3.6,41,0.00,,BKN250,2.99,VWS V14.01,2013-10-14 09:39:00,
2013-10-14 05:42:00,56.5,31.8,30.36,North,0,3.8,5.4,39,0.00,,,0.00,VWS V14.01,2013-10-14 09:42:00,
2013-10-14 05:44:00,55.8,32.4,30.36,North,0,3.6,7.2,41,0.00,,BKN250,2.99,VWS V14.01,2013-10-14 09:44:00,
2013-10-14 05:47:00,56.5,31.8,30.36,NNW,338,3.1,3.8,39,0.00,,,0.00,VWS V14.01,2013-10-14 09:47:00,
2013-10-14 05:49:00,55.6,32.9,30.36,NNE,22,2.7,7.2,42,0.00,,BKN250,2.99,VWS V14.01,2013-10-14 09:49:00,
2013-10-14 05:52:00,56.3,31.7,30.36,NNW,338,0.0,3.1,39,0.00,,,0.00,VWS V14.01,2013-10-14 09:52:00,
2013-10-14 05:54:00,55.4,32.1,30.36,WNW,292,2.2,7.2,41,0.00,,BKN250,2.99,VWS V14.01,2013-10-14 09:54:00,
2013-10-14 05:57:00,56.3,32.3,30.36,NNW,338,1.3,1.3,40,0.00,,,0.00,VWS V14.01,2013-10-14 09:57:00,
2013-10-14 05:59:00,55.4,32.7,30.36,North,0,0.9,7.2,42,0.00,,BKN250,2.99,VWS V14.01,2013-10-14 09:59:00,
2013-10-14 06:00:00,55.4,33.3,30.36,NNW,338,2.5,7.2,43,0.00,,BKN250,2.99,VWS V14.01,2013-10-14 10:00:00,
2013-10-14 06:02:00,56.1,32.2,30.36,North,0,2.7,2.7,40,0.00,,,0.00,VWS V14.01,2013-10-14 10:02:00,
2013-10-14 06:04:00,55.4,33.3,30.36,NNE,22,2.9,4.3,43,0.00,,BKN250,2.99,VWS V14.01,2013-10-14 10:04:00,
2013-10-14 06:07:00,55.9,32.0,30.36,ENE,68,2.9,2.9,40,0.00,,,0.00,VWS V14.01,2013-10-14 10:07:00,
2013-10-14 06:09:00,55.2,33.1,30.39,NNW,338,2.0,4.7,43,0.00,,BKN250,2.99,VWS V14.01,2013-10-14 10:09:00,
2013-10-14 06:12:00,55.9,32.0,30.36,NNE,22,2.5,2.9,40,0.00,,,0.00,VWS V14.01,2013-10-14 10:12:00,
2013-10-14 06:14:00,55.0,33.5,30.39,ENE,68,4.0,4.7,44,0.00,,BKN250,2.99,VWS V14.01,2013-10-14 10:14:00,
2013-10-14 06:17:00,55.9,32.6,30.36,NW,315,3.6,3.6,41,0.00,,,0.00,VWS V14.01,2013-10-14 10:17:00,
2013-10-14 06:19:00,55.0,33.5,30.39,North,0,1.3,4.7,44,0.00,,BKN250,2.99,VWS V14.01,2013-10-14 10:19:00,
2013-10-14 06:22:00,55.8,33.0,30.39,North,0,1.3,3.6,42,0.00,,,0.00,VWS V14.01,2013-10-14 10:22:00,
2013-10-14 06:24:00,54.9,33.4,30.39,NNW,338,2.0,4.7,44,0.00,,BKN250,2.99,VWS V14.01,2013-10-14 10:24:00,
2013-10-14 06:27:00,55.8,32.4,30.39,NNE,22,1.6,1.6,41,0.00,,,0.00,VWS V14.01,2013-10-14 10:27:00,
2013-10-14 06:28:00,54.7,33.2,30.39,NNW,338,0.0,4.7,44,0.00,,BKN250,2.99,VWS V14.01,2013-10-14 10:28:00,
2013-10-14 06:32:00,55.8,32.4,30.39,NNW,338,0.0,1.6,41,0.00,,,0.00,VWS V14.01,2013-10-14 10:32:00,
2013-10-14 06:33:00,54.7,33.8,30.39,NE,45,3.6,5.4,45,0.00,,BKN250,2.99,VWS V14.01,2013-10-14 10:33:00,
2013-10-14 06:38:00,54.5,33.6,30.39,NNW,338,2.5,5.6,45,0.00,,BKN250,2.99,VWS V14.01,2013-10-14 10:38:00,
2013-10-14 06:43:00,54.5,33.6,30.39,North,0,2.7,5.6,45,0.00,,BKN250,2.99,VWS V14.01,2013-10-14 10:43:00,
2013-10-14 06:48:00,54.3,33.5,30.39,NNE,22,3.1,5.6,45,0.00,,BKN250,2.99,VWS V14.01,2013-10-14 10:48:00,
2013-10-14 06:53:00,54.3,34.0,30.36,NNE,22,1.6,5.6,46,0.00,,BKN250,2.99,VWS V14.01,2013-10-14 10:53:00,
2013-10-14 06:58:00,54.1,33.8,30.36,NNE,22,2.2,5.6,46,0.00,,BKN250,2.99,VWS V14.01,2013-10-14 10:58:00,
2013-10-14 07:00:00,54.1,33.8,30.36,NNW,338,1.6,5.6,46,0.00,,BKN250,2.99,VWS V14.01,2013-10-14 11:00:00,
2013-10-14 07:03:00,54.1,33.8,30.36,North,0,2.7,3.1,46,0.00,,BKN250,2.99,VWS V14.01,2013-10-14 11:03:00,
2013-10-14 07:08:00,54.0,34.2,30.39,North,0,2.7,3.6,47,0.00,,BKN250,2.99,VWS V14.01,2013-10-14 11:08:00,
2013-10-14 07:13:00,54.0,33.7,30.39,North,0,2.2,5.8,46,0.00,,BKN250,2.99,VWS V14.01,2013-10-14 11:13:00,
2013-10-14 07:18:00,53.8,33.5,30.39,NE,45,2.0,5.8,46,0.00,,BKN250,2.99,VWS V14.01,2013-10-14 11:18:00,
2013-10-14 07:23:00,53.8,33.5,30.36,NNE,22,2.7,6.0,46,0.00,,BKN250,2.99,VWS V14.01,2013-10-14 11:23:00,
2013-10-14 07:28:00,53.6,33.9,30.36,NNW,338,5.4,6.0,47,0.00,,BKN250,2.99,VWS V14.01,2013-10-14 11:28:00,
2013-10-14 07:33:00,53.6,33.9,30.36,North,0,4.7,6.3,47,0.00,,BKN250,2.99,VWS V14.01,2013-10-14 11:33:00,
2013-10-14 07:38:00,53.4,33.7,30.39,NNW,338,3.6,6.3,47,0.00,,BKN250,2.99,VWS V14.01,2013-10-14 11:38:00,
2013-10-14 07:43:00,53.2,34.1,30.39,NNW,338,2.9,6.3,48,0.00,,BKN250,2.99,VWS V14.01,2013-10-14 11:43:00,
2013-10-14 07:48:00,53.1,34.4,30.39,NNE,22,3.4,6.3,49,0.00,,BKN250,2.99,VWS V14.01,2013-10-14 11:48:00,
2013-10-14 07:53:00,53.1,34.4,30.39,NNE,22,3.4,6.5,49,0.00,,BKN250,2.99,VWS V14.01,2013-10-14 11:53:00,
2013-10-14 07:58:00,52.9,34.3,30.39,NW,315,2.5,6.5,49,0.00,,BKN250,2.99,VWS V14.01,2013-10-14 11:58:00,
2013-10-14 08:00:00,52.9,34.3,30.39,NNE,22,4.0,6.5,49,0.00,,BKN250,2.99,VWS V14.01,2013-10-14 12:00:00,
2013-10-14 08:03:00,52.9,34.3,30.39,NNW,338,4.0,6.3,49,0.00,,BKN250,2.99,VWS V14.01,2013-10-14 12:03:00,
2013-10-14 08:08:00,52.9,34.8,30.39,NNE,22,3.1,6.3,50,0.00,,BKN250,2.99,VWS V14.01,2013-10-14 12:08:00,
2013-10-14 08:13:00,52.7,34.6,30.39,North,0,4.7,6.3,50,0.00,,BKN250,2.99,VWS V14.01,2013-10-14 12:13:00,
2013-10-14 08:18:00,52.7,35.1,30.39,NNW,338,3.6,6.3,51,0.00,,BKN250,2.99,VWS V14.01,2013-10-14 12:18:00,
2013-10-14 08:23:00,52.7,35.1,30.39,North,0,3.6,6.3,51,0.00,,BKN250,2.99,VWS V14.01,2013-10-14 12:23:00,
2013-10-14 08:28:00,52.9,35.3,30.39,NNE,22,3.6,6.3,51,0.00,,BKN250,2.99,VWS V14.01,2013-10-14 12:28:00,
2013-10-14 08:33:00,52.9,35.3,30.39,NNW,338,5.4,6.3,51,0.00,,BKN250,2.99,VWS V14.01,2013-10-14 12:33:00,
2013-10-14 08:38:00,52.9,35.3,30.39,NW,315,2.7,6.3,51,0.00,,BKN250,2.99,VWS V14.01,2013-10-14 12:38:00,
2013-10-14 08:43:00,53.1,35.4,30.39,North,0,3.8,6.3,51,0.00,,BKN250,2.99,VWS V14.01,2013-10-14 12:43:00,
2013-10-14 08:48:00,53.1,35.4,30.39,NNE,22,3.6,6.3,51,0.00,,BKN250,2.99,VWS V14.01,2013-10-14 12:48:00,
2013-10-14 08:53:00,53.2,35.6,30.41,NNW,338,2.9,6.3,51,0.00,,BKN250,2.99,VWS V14.01,2013-10-14 12:53:00,
2013-10-14 08:58:00,53.4,35.8,30.41,NNW,338,2.0,6.3,51,0.00,,BKN250,2.99,VWS V14.01,2013-10-14 12:58:00,
2013-10-14 09:00:00,53.4,36.2,30.42,NNE,22,2.7,6.3,52,0.00,,BKN250,2.99,VWS V14.01,2013-10-14 13:00:00,
2013-10-14 09:03:00,53.6,35.4,30.41,North,0,4.5,4.5,50,0.00,,BKN250,2.99,VWS V14.01,2013-10-14 13:03:00,
2013-10-14 09:08:00,53.8,36.1,30.39,NW,315,2.9,4.5,51,0.00,,BKN250,2.99,VWS V14.01,2013-10-14 13:08:00,
2013-10-14 09:13:00,54.1,35.9,30.39,NNE,22,2.7,4.5,50,0.00,,BKN250,2.99,VWS V14.01,2013-10-14 13:13:00,
2013-10-14 09:18:00,54.3,36.1,30.39,NNW,338,0.0,4.5,50,0.00,,BKN250,2.99,VWS V14.01,2013-10-14 13:18:00,
2013-10-14 09:23:00,54.7,36.9,30.39,North,0,0.0,5.6,51,0.00,,BKN250,2.99,VWS V14.01,2013-10-14 13:23:00,
2013-10-14 09:28:00,55.0,36.8,30.39,NNW,338,2.2,5.6,50,0.00,,BKN250,2.99,VWS V14.01,2013-10-14 13:28:00,
2013-10-14 09:33:00,55.4,36.6,30.39,NNE,22,2.0,5.6,49,0.00,,BKN250,2.99,VWS V14.01,2013-10-14 13:33:00,
2013-10-14 09:38:00,55.8,36.9,30.39,NW,315,2.7,5.6,49,0.00,,BKN250,2.99,VWS V14.01,2013-10-14 13:38:00,
2013-10-14 09:43:00,55.9,37.1,30.39,ESE,112,1.6,5.6,49,0.00,,BKN250,2.99,VWS V14.01,2013-10-14 13:43:00,
2013-10-14 09:48:00,56.1,36.7,30.39,NNE,22,3.4,5.6,48,0.00,,BKN250,2.99,VWS V14.01,2013-10-14 13:48:00,
2013-10-14 09:53:00,56.3,36.9,30.39,NNE,22,2.7,5.6,48,0.00,,BKN250,2.99,VWS V14.01,2013-10-14 13:53:00,
2013-10-14 09:58:00,56.5,37.0,30.39,NNW,338,2.9,6.3,48,0.00,,BKN250,2.99,VWS V14.01,2013-10-14 13:58:00,
2013-10-14 10:00:00,56.5,37.0,30.39,NNW,338,2.9,6.3,48,0.00,,BKN250,2.99,VWS V14.01,2013-10-14 14:00:00,
2013-10-14 10:03:00,56.7,37.2,30.39,NNW,338,1.1,3.1,48,0.00,,BKN250,2.99,VWS V14.01,2013-10-14 14:03:00,
2013-10-14 10:08:00,56.8,37.4,30.39,ENE,68,2.5,3.6,48,0.00,,BKN250,2.99,VWS V14.01,2013-10-14 14:08:00,
2013-10-14 10:13:00,57.2,37.2,30.39,NE,45,2.0,3.6,47,0.00,,BKN250,2.99,VWS V14.01,2013-10-14 14:13:00,
2013-10-14 10:18:00,57.4,37.3,30.39,North,0,1.3,4.9,47,0.00,,BKN250,2.99,VWS V14.01,2013-10-14 14:18:00,
2013-10-14 10:23:00,57.4,36.2,30.39,NE,45,3.1,6.0,45,0.00,,BKN250,2.99,VWS V14.01,2013-10-14 14:23:00,
2013-10-14 10:28:00,57.6,36.4,30.39,NNW,338,3.8,6.0,45,0.00,,BKN250,2.99,VWS V14.01,2013-10-14 14:28:00,
2013-10-14 10:33:00,57.7,36.6,30.39,SSE,158,0.0,6.0,45,0.00,,BKN250,2.99,VWS V14.01,2013-10-14 14:33:00,
2013-10-14 10:38:00,58.1,37.5,30.39,NNE,22,1.1,6.0,46,0.00,,BKN250,2.99,VWS V14.01,2013-10-14 14:38:00,
2013-10-14 10:43:00,58.5,37.8,30.39,NNE,22,0.9,6.0,46,0.00,,BKN250,2.99,VWS V14.01,2013-10-14 14:43:00,
2013-10-14 10:48:00,58.6,37.9,30.39,North,0,0.0,6.0,46,0.00,,BKN250,2.99,VWS V14.01,2013-10-14 14:48:00,
2013-10-14 10:53:00,59.0,37.7,30.39,ENE,68,2.0,6.0,45,0.00,,BKN250,2.99,VWS V14.01,2013-10-14 14:53:00,
2013-10-14 10:58:00,59.4,38.0,30.39,North,0,1.1,6.0,45,0.00,,BKN250,2.99,VWS V14.01,2013-10-14 14:58:00,
2013-10-14 11:00:00,56.5,37.0,30.39,NNW,338,2.9,6.3,48,0.00,,,2.99,VWS V14.01,2013-10-14 15:00:00,
2013-10-14 11:03:00,59.7,38.4,30.39,NNE,22,1.1,6.0,45,0.00,,BKN250,2.99,VWS V14.01,2013-10-14 15:03:00,
2013-10-14 11:08:00,60.1,38.7,30.39,NNW,338,1.6,6.0,45,0.00,,BKN250,2.99,VWS V14.01,2013-10-14 15:08:00,
2013-10-14 11:13:00,60.1,38.7,30.39,North,0,0.0,6.0,45,0.00,,BKN250,2.99,VWS V14.01,2013-10-14 15:13:00,
2013-10-14 11:18:00,60.6,37.4,30.39,NNW,338,2.2,6.0,42,0.00,,BKN250,2.99,VWS V14.01,2013-10-14 15:18:00,
2013-10-14 11:23:00,61.2,37.9,30.36,North,0,1.1,6.0,42,0.00,,BKN250,2.99,VWS V14.01,2013-10-14 15:23:00,
2013-10-14 11:28:00,61.5,37.6,30.36,NNW,338,4.3,6.0,41,0.00,,BKN250,2.99,VWS V14.01,2013-10-14 15:28:00,
2013-10-14 11:33:00,61.9,37.3,30.36,NNW,338,2.9,6.0,40,0.00,,BKN250,2.99,VWS V14.01,2013-10-14 15:33:00,
2013-10-14 11:38:00,62.2,37.0,30.36,NNE,22,2.9,6.0,39,0.00,,BKN250,2.99,VWS V14.01,2013-10-14 15:38:00,
2013-10-14 11:43:00,62.6,37.3,30.36,NNW,338,4.5,6.0,39,0.00,,BKN250,2.99,VWS V14.01,2013-10-14 15:43:00,
2013-10-14 11:48:00,63.0,36.3,30.36,NNE,22,1.1,6.0,37,0.00,,BKN250,2.99,VWS V14.01,2013-10-14 15:48:00,
2013-10-14 11:53:00,63.1,37.1,30.36,South,180,0.0,6.0,38,0.00,,BKN250,2.99,VWS V14.01,2013-10-14 15:53:00,
2013-10-14 11:58:00,63.9,37.1,30.36,NNE,22,3.8,6.0,37,0.00,,BKN250,2.99,VWS V14.01,2013-10-14 15:58:00,
2013-10-14 12:00:00,63.9,37.1,30.36,NNE,22,3.4,6.0,37,0.00,,BKN250,2.99,VWS V14.01,2013-10-14 16:00:00,
2013-10-14 12:03:00,63.9,37.1,30.36,NNW,338,3.4,4.3,37,0.00,,BKN250,2.99,VWS V14.01,2013-10-14 16:03:00,
2013-10-14 12:08:00,64.6,36.3,30.33,North,0,3.6,5.6,35,0.00,,BKN250,2.99,VWS V14.01,2013-10-14 16:08:00,
2013-10-14 12:13:00,65.1,36.8,30.33,NNW,338,6.0,6.0,35,0.00,,BKN250,2.99,VWS V14.01,2013-10-14 16:13:00,
2013-10-14 12:18:00,65.7,37.3,30.33,NNW,338,3.8,6.0,35,0.00,,BKN250,2.99,VWS V14.01,2013-10-14 16:18:00,
2013-10-14 12:23:00,65.8,36.7,30.33,North,0,0.9,6.0,34,0.00,,BKN250,2.99,VWS V14.01,2013-10-14 16:23:00,
2013-10-14 12:28:00,66.2,37.0,30.33,SSE,158,1.1,6.0,34,0.00,,BKN250,2.99,VWS V14.01,2013-10-14 16:28:00,
2013-10-14 12:32:00,66.7,36.8,30.33,NNE,22,3.1,3.1,33,0.00,,BKN250,2.99,VWS V14.01,2013-10-14 16:32:00,
2013-10-14 12:37:00,67.1,37.8,30.33,ENE,68,0.0,3.1,34,0.00,,BKN250,2.99,VWS V14.01,2013-10-14 16:37:00,
2013-10-14 12:42:00,67.5,37.4,30.33,WNW,292,1.3,1.3,33,0.00,,BKN250,2.99,VWS V14.01,2013-10-14 16:42:00,
2013-10-14 12:47:00,68.0,37.8,30.33,ESE,112,2.0,2.0,33,0.00,,BKN250,2.99,VWS V14.01,2013-10-14 16:47:00,
2013-10-14 12:52:00,68.4,38.2,30.33,NNW,338,2.9,2.9,33,0.00,,BKN250,2.99,VWS V14.01,2013-10-14 16:52:00,
2013-10-14 12:57:00,68.7,38.5,30.33,SSE,158,0.0,2.9,33,0.00,,BKN250,2.99,VWS V14.01,2013-10-14 16:57:00,
2013-10-14 13:00:00,63.9,37.1,30.36,NNE,22,3.4,6.0,37,0.00,,,2.99,VWS V14.01,2013-10-14 17:00:00,
2013-10-14 13:02:00,69.1,38.8,30.33,SE,135,3.1,3.1,33,0.00,,BKN250,2.99,VWS V14.01,2013-10-14 17:02:00,
2013-10-14 13:07:00,69.4,38.3,30.33,NNW,338,3.8,3.8,32,0.00,,BKN250,2.99,VWS V14.01,2013-10-14 17:07:00,
2013-10-14 13:12:00,69.8,38.6,30.33,ESE,112,1.6,3.8,32,0.00,,BKN250,2.99,VWS V14.01,2013-10-14 17:12:00,
2013-10-14 13:17:00,70.2,38.1,30.33,NE,45,1.3,1.6,31,0.00,,BKN250,2.99,VWS V14.01,2013-10-14 17:17:00,
2013-10-14 13:27:00,70.5,37.6,30.33,NE,45,0.0,1.3,30,0.00,,OVC044,2.99,VWS V14.01,2013-10-14 17:27:00,
2013-10-14 13:32:00,66.7,36.8,30.33,NNE,22,3.1,3.1,33,0.00,,,2.99,VWS V14.01,2013-10-14 17:32:00,
2013-10-14 13:36:00,70.5,37.6,30.33,NE,45,0.0,1.3,30,0.00,,BKN250,2.99,VWS V14.01,2013-10-14 17:36:00,
2013-10-14 13:37:00,67.1,37.8,30.33,ENE,68,0.0,3.1,34,0.00,,,2.99,VWS V14.01,2013-10-14 17:37:00,
2013-10-14 13:41:00,71.1,37.2,30.33,West,270,1.3,2.5,29,0.00,,BKN250,2.99,VWS V14.01,2013-10-14 17:41:00,
2013-10-14 13:42:00,67.5,37.4,30.33,WNW,292,1.3,1.3,33,0.00,,,2.99,VWS V14.01,2013-10-14 17:42:00,
2013-10-14 13:46:00,71.4,37.5,30.33,NNE,22,0.0,2.5,29,0.00,,BKN250,2.99,VWS V14.01,2013-10-14 17:46:00,
2013-10-14 13:47:00,68.0,37.8,30.33,ESE,112,2.0,2.0,33,0.00,,,2.99,VWS V14.01,2013-10-14 17:47:00,
2013-10-14 13:51:00,71.8,37.8,30.30,North,0,0.0,2.5,29,0.00,,BKN250,2.99,VWS V14.01,2013-10-14 17:51:00,
2013-10-14 13:52:00,68.4,38.2,30.33,NNW,338,2.9,2.9,33,0.00,,,2.99,VWS V14.01,2013-10-14 17:52:00,
2013-10-14 13:56:00,72.1,37.3,30.30,NNE,22,3.1,4.0,28,0.00,,BKN250,2.99,VWS V14.01,2013-10-14 17:56:00,
2013-10-14 13:57:00,68.7,38.5,30.33,SSE,158,0.0,2.9,33,0.00,,,2.99,VWS V14.01,2013-10-14 17:57:00,
2013-10-14 14:00:00,72.3,36.5,30.30,NNE,22,5.6,5.6,27,0.00,,OVC044,2.99,VWS V14.01,2013-10-14 18:00:00,
2013-10-14 14:01:00,72.3,37.4,30.30,ENE,68,2.2,5.6,28,0.00,,BKN250,2.99,VWS V14.01,2013-10-14 18:01:00,
2013-10-14 14:02:00,69.1,38.8,30.33,SE,135,3.1,3.1,33,0.00,,,2.99,VWS V14.01,2013-10-14 18:02:00,
2013-10-14 14:06:00,72.3,36.5,30.30,North,0,3.1,5.6,27,0.00,,BKN250,2.99,VWS V14.01,2013-10-14 18:06:00,
2013-10-14 14:07:00,69.4,38.3,30.33,NNW,338,3.8,3.8,32,0.00,,,2.99,VWS V14.01,2013-10-14 18:07:00,
2013-10-14 14:11:00,72.3,36.5,30.30,ENE,68,2.2,5.6,27,0.00,,BKN250,2.99,VWS V14.01,2013-10-14 18:11:00,
2013-10-14 14:12:00,69.8,38.6,30.33,ESE,112,1.6,3.8,32,0.00,,,2.99,VWS V14.01,2013-10-14 18:12:00,
2013-10-14 14:16:00,72.0,34.2,30.30,NNW,338,2.7,5.6,25,0.00,,BKN250,2.99,VWS V14.01,2013-10-14 18:16:00,
2013-10-14 14:17:00,70.2,38.1,30.33,NE,45,1.3,1.6,31,0.00,,,2.99,VWS V14.01,2013-10-14 18:17:00,
2013-10-14 14:22:00,71.6,34.9,30.30,North,0,3.6,3.6,26,0.00,,BKN250,2.99,VWS V14.01,2013-10-14 18:22:00,
2013-10-14 14:27:00,72.0,36.2,30.30,East,90,0.0,3.6,27,0.00,,BKN250,2.99,VWS V14.01,2013-10-14 18:27:00,
2013-10-14 14:32:00,72.5,37.6,30.30,SSE,158,1.3,4.0,28,0.00,,BKN250,2.99,VWS V14.01,2013-10-14 18:32:00,
2013-10-14 14:37:00,72.7,36.8,30.30,SSE,158,1.3,4.5,27,0.00,,BKN250,2.99,VWS V14.01,2013-10-14 18:37:00,
2013-10-14 14:42:00,72.5,37.6,30.30,West,270,1.6,1.6,28,0.00,,BKN250,2.99,VWS V14.01,2013-10-14 18:42:00,
2013-10-14 14:45:00,72.5,35.7,30.30,ESE,112,2.7,4.9,26,0.00,,BKN250,2.99,VWS V14.01,2013-10-14 18:45:00,
2013-10-14 14:50:00,72.7,36.8,30.24,NE,45,0.0,4.9,27,0.00,,BKN250,2.99,VWS V14.01,2013-10-14 18:50:00,
2013-10-14 14:55:00,72.5,35.7,30.24,ESE,112,2.5,4.9,26,0.00,,BKN250,2.99,VWS V14.01,2013-10-14 18:55:00,
2013-10-14 15:00:00,72.5,36.7,30.24,NW,315,0.9,4.9,27,0.00,,BKN250,2.99,VWS V14.01,2013-10-14 19:00:00,
2013-10-14 15:05:00,72.7,36.8,30.27,NNE,22,1.1,4.7,27,0.00,,BKN250,2.99,VWS V14.01,2013-10-14 19:05:00,
2013-10-14 15:10:00,72.9,37.0,30.27,SSE,158,2.5,7.4,27,0.00,,BKN250,2.99,VWS V14.01,2013-10-14 19:10:00,
2013-10-14 15:15:00,73.2,37.3,30.27,SSE,158,1.6,7.4,27,0.00,,BKN250,2.99,VWS V14.01,2013-10-14 19:15:00,
2013-10-14 15:20:00,73.4,36.5,30.24,North,0,0.0,7.4,26,0.00,,BKN250,2.99,VWS V14.01,2013-10-14 19:20:00,
2013-10-14 15:22:00,71.6,34.9,30.30,North,0,3.6,3.6,26,0.00,,,2.99,VWS V14.01,2013-10-14 19:22:00,
2013-10-14 15:24:00,73.4,36.5,30.24,SSE,158,0.0,7.4,26,0.00,,BKN250,2.99,VWS V14.01,2013-10-14 19:24:00,
2013-10-14 15:29:00,73.0,35.2,30.24,NNW,338,2.9,7.4,25,0.00,,BKN250,2.99,VWS V14.01,2013-10-14 19:29:00,
2013-10-14 15:34:00,72.9,36.0,30.27,ENE,68,1.3,7.4,26,0.00,,BKN250,2.99,VWS V14.01,2013-10-14 19:34:00,
2013-10-14 15:39:00,73.0,35.2,30.27,NNE,22,2.7,7.4,25,0.00,,BKN250,2.99,VWS V14.01,2013-10-14 19:39:00,
2013-10-14 15:42:00,72.5,37.6,30.30,West,270,1.6,1.6,28,0.00,,,2.99,VWS V14.01,2013-10-14 19:42:00,
2013-10-14 15:44:00,73.0,36.2,30.27,ESE,112,2.0,7.4,26,0.00,,BKN250,2.99,VWS V14.01,2013-10-14 19:44:00,
2013-10-14 15:49:00,72.7,35.8,30.24,WNW,292,3.4,7.4,26,0.00,,BKN250,2.99,VWS V14.01,2013-10-14 19:49:00,
2013-10-14 15:54:00,72.7,35.8,30.24,South,180,0.0,7.4,26,0.00,,BKN250,2.99,VWS V14.01,2013-10-14 19:54:00,
2013-10-14 15:59:00,72.7,35.8,30.24,NNW,338,3.1,7.4,26,0.00,,BKN250,2.99,VWS V14.01,2013-10-14 19:59:00,
2013-10-14 16:00:00,72.7,35.8,30.24,NNW,338,5.4,7.4,26,0.00,,OVC044,2.99,VWS V14.01,2013-10-14 20:00:00,
2013-10-14 16:04:00,72.7,35.8,30.27,NNE,22,1.3,5.4,26,0.00,,BKN250,2.99,VWS V14.01,2013-10-14 20:04:00,
2013-10-14 16:09:00,72.5,35.7,30.27,North,0,0.0,5.4,26,0.00,,BKN250,2.99,VWS V14.01,2013-10-14 20:09:00,
2013-10-14 16:14:00,72.3,33.5,30.27,NNW,338,1.1,5.4,24,0.00,,BKN250,2.99,VWS V14.01,2013-10-14 20:14:00,
2013-10-14 16:19:00,72.3,34.6,30.27,NNW,338,4.0,5.4,25,0.00,,BKN250,2.99,VWS V14.01,2013-10-14 20:19:00,
2013-10-14 16:24:00,72.3,34.6,30.24,East,90,1.1,5.4,25,0.00,,BKN250,2.99,VWS V14.01,2013-10-14 20:24:00,
2013-10-14 16:29:00,72.3,34.6,30.24,NNW,338,2.0,5.4,25,0.00,,BKN250,2.99,VWS V14.01,2013-10-14 20:29:00,
2013-10-14 16:34:00,72.3,34.6,30.24,NNE,22,3.4,5.4,25,0.00,,BKN250,2.99,VWS V14.01,2013-10-14 20:34:00,
2013-10-14 16:39:00,72.3,34.6,30.24,North,0,0.0,5.4,25,0.00,,BKN250,2.99,VWS V14.01,2013-10-14 20:39:00,
2013-10-14 16:44:00,72.3,34.6,30.24,ENE,68,0.0,5.4,25,0.00,,BKN250,2.99,VWS V14.01,2013-10-14 20:44:00,
2013-10-14 16:49:00,72.1,34.4,30.24,WNW,292,0.0,5.4,25,0.00,,BKN250,2.99,VWS V14.01,2013-10-14 20:49:00,
2013-10-14 16:54:00,72.1,34.4,30.24,NW,315,0.0,5.4,25,0.00,,BKN250,2.99,VWS V14.01,2013-10-14 20:54:00,
2013-10-14 16:59:00,72.0,35.2,30.24,South,180,2.0,5.4,26,0.00,,BKN250,2.99,VWS V14.01,2013-10-14 20:59:00,
2013-10-14 17:00:00,72.0,35.2,30.24,South,180,2.0,5.4,26,0.00,,OVC044,2.99,VWS V14.01,2013-10-14 21:00:00,
2013-10-14 17:02:00,72.0,35.2,30.24,NNW,338,0.9,2.2,26,0.00,,BKN250,2.99,VWS V14.01,2013-10-14 21:02:00,
2013-10-14 17:07:00,71.6,35.9,30.24,SE,135,0.0,2.2,27,0.00,,BKN250,2.99,VWS V14.01,2013-10-14 21:07:00,
2013-10-14 17:12:00,71.4,35.7,30.24,ENE,68,0.0,2.2,27,0.00,,BKN250,2.99,VWS V14.01,2013-10-14 21:12:00,
2013-10-14 17:17:00,71.4,35.7,30.24,NNW,338,0.0,2.5,27,0.00,,BKN250,2.99,VWS V14.01,2013-10-14 21:17:00,
2013-10-14 17:22:00,71.4,35.7,30.21,NNW,338,2.2,3.1,27,0.00,,BKN250,2.99,VWS V14.01,2013-10-14 21:22:00,
2013-10-14 17:27:00,71.2,35.6,30.21,NNE,22,0.0,3.1,27,0.00,,BKN250,2.99,VWS V14.01,2013-10-14 21:27:00,
2013-10-14 17:32:00,71.2,35.6,30.21,NNE,22,0.0,3.1,27,0.00,,BKN250,2.99,VWS V14.01,2013-10-14 21:32:00,
2013-10-14 17:37:00,71.1,35.4,30.24,NNW,338,0.0,3.1,27,0.00,,BKN250,2.99,VWS V14.01,2013-10-14 21:37:00,
2013-10-14 17:42:00,71.1,36.3,30.24,NNW,338,0.0,4.0,28,0.00,,BKN250,2.99,VWS V14.01,2013-10-14 21:42:00,
2013-10-14 17:47:00,70.9,36.2,30.24,NE,45,2.9,4.0,28,0.00,,BKN250,2.99,VWS V14.01,2013-10-14 21:47:00,
2013-10-14 17:52:00,70.7,36.0,30.21,North,0,0.0,4.0,28,0.00,,BKN250,2.99,VWS V14.01,2013-10-14 21:52:00,
2013-10-14 17:57:00,70.7,36.0,30.21,NNE,22,0.0,4.0,28,0.00,,BKN250,2.99,VWS V14.01,2013-10-14 21:57:00,
2013-10-14 18:00:00,70.7,36.0,30.21,ENE,68,1.3,4.0,28,0.00,,OVC044,2.99,VWS V14.01,2013-10-14 22:00:00,
2013-10-14 18:02:00,70.5,35.9,30.21,ENE,68,2.0,2.0,28,0.00,,BKN250,2.99,VWS V14.01,2013-10-14 22:02:00,
2013-10-14 18:07:00,70.5,35.9,30.21,NNW,338,2.7,3.1,28,0.00,,BKN250,2.99,VWS V14.01,2013-10-14 22:07:00,
2013-10-14 18:12:00,70.3,35.7,30.21,NNE,22,4.7,4.7,28,0.00,,BKN250,2.99,VWS V14.01,2013-10-14 22:12:00,
2013-10-14 18:17:00,70.3,35.7,30.21,North,0,1.3,4.7,28,0.00,,BKN250,2.99,VWS V14.01,2013-10-14 22:17:00,
2013-10-14 18:22:00,70.3,35.7,30.21,NNW,338,2.7,4.7,28,0.00,,BKN250,2.99,VWS V14.01,2013-10-14 22:22:00,
2013-10-14 18:27:00,70.2,36.5,30.21,NNW,338,1.6,4.7,29,0.00,,BKN250,2.99,VWS V14.01,2013-10-14 22:27:00,
2013-10-14 18:32:00,70.0,36.3,30.21,NNW,338,2.9,4.7,29,0.00,,BKN250,2.99,VWS V14.01,2013-10-14 22:32:00,
2013-10-14 18:37:00,70.0,36.3,30.21,WNW,292,0.0,4.7,29,0.00,,BKN250,2.99,VWS V14.01,2013-10-14 22:37:00,
2013-10-14 18:42:00,69.6,36.8,30.21,North,0,2.5,4.7,30,0.00,,BKN250,2.99,VWS V14.01,2013-10-14 22:42:00,
2013-10-14 18:47:00,69.4,36.7,30.21,NNE,22,0.0,4.7,30,0.00,,BKN250,2.99,VWS V14.01,2013-10-14 22:47:00,
2013-10-14 18:52:00,69.3,37.4,30.21,ENE,68,0.9,4.7,31,0.00,,BKN250,2.99,VWS V14.01,2013-10-14 22:52:00,
2013-10-14 18:57:00,68.9,37.8,30.21,NNW,338,0.0,4.7,32,0.00,,BKN250,2.99,VWS V14.01,2013-10-14 22:57:00,
2013-10-14 19:00:00,68.7,37.7,30.21,NNE,22,0.0,4.7,32,0.00,,OVC044,2.99,VWS V14.01,2013-10-14 23:00:00,
2013-10-14 19:02:00,68.5,37.5,30.21,NNW,338,0.0,1.6,32,0.00,,BKN250,2.99,VWS V14.01,2013-10-14 23:02:00,
2013-10-14 19:07:00,68.4,37.4,30.21,NNE,22,0.9,4.0,32,0.00,,BKN250,2.99,VWS V14.01,2013-10-14 23:07:00,
2013-10-14 19:12:00,68.0,37.1,30.21,North,0,0.0,4.0,32,0.00,,BKN250,2.99,VWS V14.01,2013-10-14 23:12:00,
2013-10-14 19:17:00,68.0,37.1,30.21,NNE,22,0.0,4.0,32,0.00,,BKN250,2.99,VWS V14.01,2013-10-14 23:17:00,
2013-10-14 19:21:00,67.6,37.5,30.21,NNW,338,0.9,4.0,33,0.00,,BKN250,2.99,VWS V14.01,2013-10-14 23:21:00,
2013-10-14 19:26:00,67.3,38.0,30.21,NE,45,0.0,4.0,34,0.00,,BKN250,2.99,VWS V14.01,2013-10-14 23:26:00,
2013-10-14 19:31:00,67.1,37.8,30.21,NNE,22,0.0,4.0,34,0.00,,BKN250,2.99,VWS V14.01,2013-10-14 23:31:00,
2013-10-14 19:36:00,66.7,37.5,30.21,North,0,0.0,4.0,34,0.00,,BKN250,2.99,VWS V14.01,2013-10-14 23:36:00,
2013-10-14 19:41:00,66.6,38.1,30.21,NNE,22,0.0,4.0,35,0.00,,BKN250,2.99,VWS V14.01,2013-10-14 23:41:00,
2013-10-14 19:46:00,66.2,37.8,30.21,NNE,22,0.0,4.0,35,0.00,,BKN250,2.99,VWS V14.01,2013-10-14 23:46:00,
2013-10-14 19:51:00,66.0,38.3,30.21,NNE,22,0.0,4.0,36,0.00,,BKN250,2.99,VWS V14.01,2013-10-14 23:51:00,
2013-10-14 19:56:00,65.7,38.7,30.21,NNE,22,0.0,4.0,37,0.00,,BKN250,2.99,VWS V14.01,2013-10-14 23:56:00,
2013-10-14 20:00:00,65.5,38.5,30.21,NNE,22,0.0,4.0,37,0.00,,OVC044,2.99,VWS V14.01,2013-10-15 00:00:00,
2013-10-14 20:01:00,65.5,39.2,30.21,NNE,22,0.0,0.0,38,0.00,,BKN250,2.99,VWS V14.01,2013-10-15 00:01:00,
2013-10-14 20:06:00,65.1,40.2,30.21,NNE,22,0.0,0.0,40,0.00,,BKN250,2.99,VWS V14.01,2013-10-15 00:06:00,
2013-10-14 20:11:00,64.9,39.4,30.21,NNE,22,0.0,0.0,39,0.00,,BKN250,2.99,VWS V14.01,2013-10-15 00:11:00,
2013-10-14 20:16:00,64.8,39.9,30.21,NNE,22,0.0,0.0,40,0.00,,BKN250,2.99,VWS V14.01,2013-10-15 00:16:00,
2013-10-14 20:21:00,64.6,39.7,30.21,NNE,22,0.0,0.0,40,0.00,,BKN250,2.99,VWS V14.01,2013-10-15 00:21:00,
2013-10-14 20:26:00,64.4,40.2,30.21,NNE,22,0.0,0.0,41,0.00,,BKN250,2.99,VWS V14.01,2013-10-15 00:26:00,
2013-10-14 20:31:00,64.2,40.7,30.21,NNE,22,0.0,0.0,42,0.00,,BKN250,2.99,VWS V14.01,2013-10-15 00:31:00,
2013-10-14 20:36:00,64.2,41.3,30.21,NNW,338,0.0,0.0,43,0.00,,BKN250,2.99,VWS V14.01,2013-10-15 00:36:00,
2013-10-14 20:41:00,63.9,41.5,30.21,NNW,338,0.0,0.0,44,0.00,,BKN250,2.99,VWS V14.01,2013-10-15 00:41:00,
2013-10-14 20:46:00,63.7,41.4,30.21,NNW,338,0.0,0.0,44,0.00,,BKN250,2.99,VWS V14.01,2013-10-15 00:46:00,
2013-10-14 20:51:00,63.5,41.8,30.21,NNW,338,0.0,0.0,45,0.00,,BKN250,2.99,VWS V14.01,2013-10-15 00:51:00,
2013-10-14 20:56:00,63.3,42.2,30.21,NNW,338,0.0,0.0,46,0.00,,BKN250,2.99,VWS V14.01,2013-10-15 00:56:00,
2013-10-14 21:00:00,65.5,38.5,30.21,NNE,22,0.0,4.0,37,0.00,,,2.99,VWS V14.01,2013-10-15 01:00:00,
2013-10-14 21:01:00,63.3,42.2,30.21,NNW,338,0.0,0.0,46,0.00,,BKN250,2.99,VWS V14.01,2013-10-15 01:01:00,
2013-10-14 21:06:00,63.0,42.4,30.21,NNW,338,0.0,0.0,47,0.00,,BKN250,2.99,VWS V14.01,2013-10-15 01:06:00,
2013-10-14 21:11:00,63.0,43.0,30.21,NNW,338,0.0,0.0,48,0.00,,BKN250,2.99,VWS V14.01,2013-10-15 01:11:00,
2013-10-14 21:16:00,62.8,43.4,30.21,NNW,338,0.0,0.0,49,0.00,,BKN250,2.99,VWS V14.01,2013-10-15 01:16:00,
2013-10-14 21:21:00,62.6,43.2,30.21,NNW,338,0.0,0.0,49,0.00,,BKN250,2.99,VWS V14.01,2013-10-15 01:21:00,
2013-10-14 21:26:00,62.4,44.1,30.21,NNW,338,0.0,0.0,51,0.00,,BKN250,2.99,VWS V14.01,2013-10-15 01:26:00,
2013-10-14 21:31:00,62.2,44.4,30.21,NNW,338,0.0,0.0,52,0.00,,BKN250,2.99,VWS V14.01,2013-10-15 01:31:00,
2013-10-14 21:37:00,62.1,44.2,30.24,NNW,338,0.0,0.0,52,0.00,,BKN250,2.99,VWS V14.01,2013-10-15 01:37:00,
2013-10-14 21:42:00,61.9,44.1,30.24,NNW,338,0.0,0.0,52,0.00,,BKN250,2.99,VWS V14.01,2013-10-15 01:42:00,
2013-10-14 21:47:00,61.9,45.1,30.24,NNW,338,0.0,0.0,54,0.00,,BKN250,2.99,VWS V14.01,2013-10-15 01:47:00,
2013-10-14 21:52:00,61.7,44.9,30.21,NNW,338,0.0,0.0,54,0.00,,BKN250,2.99,VWS V14.01,2013-10-15 01:52:00,
2013-10-14 21:57:00,61.5,45.2,30.21,NNW,338,0.0,0.0,55,0.00,,BKN250,2.99,VWS V14.01,2013-10-15 01:57:00,
2013-10-14 22:00:00,61.5,45.2,30.21,NNW,338,0.0,0.0,55,0.00,,OVC044,2.99,VWS V14.01,2013-10-15 02:00:00,
2013-10-14 22:02:00,61.5,45.7,30.21,NNW,338,0.0,0.0,56,0.00,,BKN250,2.99,VWS V14.01,2013-10-15 02:02:00,
2013-10-14 22:07:00,61.3,46.0,30.21,NNW,338,0.0,0.0,57,0.00,,BKN250,2.99,VWS V14.01,2013-10-15 02:07:00,
2013-10-14 22:12:00,61.3,46.5,30.21,NNW,338,0.0,0.0,58,0.00,,BKN250,2.99,VWS V14.01,2013-10-15 02:12:00,
2013-10-14 22:17:00,61.3,47.3,30.21,NNW,338,0.0,0.0,60,0.00,,BKN250,2.99,VWS V14.01,2013-10-15 02:17:00,
2013-10-14 22:22:00,61.2,46.7,30.24,NNW,338,0.0,0.0,59,0.00,,BKN250,2.99,VWS V14.01,2013-10-15 02:22:00,
2013-10-14 22:27:00,61.0,47.0,30.24,NNW,338,0.0,0.0,60,0.00,,BKN250,2.99,VWS V14.01,2013-10-15 02:27:00,
2013-10-14 22:32:00,61.0,47.0,30.24,NNW,338,0.0,0.0,60,0.00,,BKN250,2.99,VWS V14.01,2013-10-15 02:32:00,
2013-10-14 22:37:00,61.0,47.5,30.24,NNW,338,0.0,0.0,61,0.00,,BKN250,2.99,VWS V14.01,2013-10-15 02:37:00,
2013-10-14 22:42:00,60.6,47.1,30.24,NNW,338,0.0,0.0,61,0.00,,BKN250,2.99,VWS V14.01,2013-10-15 02:42:00,
2013-10-14 22:47:00,60.6,47.1,30.24,NNW,338,0.0,0.0,61,0.00,,BKN250,2.99,VWS V14.01,2013-10-15 02:47:00,
2013-10-14 22:52:00,60.6,47.5,30.21,NNW,338,0.0,0.0,62,0.00,,BKN250,2.99,VWS V14.01,2013-10-15 02:52:00,
2013-10-14 22:57:00,60.4,47.8,30.21,NNW,338,0.0,0.0,63,0.00,,BKN250,2.99,VWS V14.01,2013-10-15 02:57:00,
2013-10-14 23:00:00,60.4,48.2,30.21,NNW,338,0.0,0.0,64,0.00,,OVC044,2.99,VWS V14.01,2013-10-15 03:00:00,
2013-10-14 23:02:00,60.4,47.8,30.21,NNW,338,0.0,0.0,63,0.00,,BKN250,2.99,VWS V14.01,2013-10-15 03:02:00,
2013-10-14 23:07:00,60.4,48.6,30.24,NNW,338,0.0,0.0,65,0.00,,BKN250,2.99,VWS V14.01,2013-10-15 03:07:00,
2013-10-14 23:11:00,60.3,48.5,30.24,NNW,338,0.0,0.0,65,0.00,,BKN250,2.99,VWS V14.01,2013-10-15 03:11:00,
2013-10-14 23:16:00,60.3,48.5,30.24,NNW,338,0.0,0.0,65,0.00,,BKN250,2.99,VWS V14.01,2013-10-15 03:16:00,
2013-10-14 23:21:00,60.1,48.7,30.24,NNW,338,0.0,0.0,66,0.00,,BKN250,2.99,VWS V14.01,2013-10-15 03:21:00,
2013-10-14 23:26:00,60.1,48.3,30.24,NNW,338,0.0,0.0,65,0.00,,BKN250,2.99,VWS V14.01,2013-10-15 03:26:00,
2013-10-14 23:31:00,60.1,48.7,30.24,NNW,338,0.0,0.0,66,0.00,,BKN250,2.99,VWS V14.01,2013-10-15 03:31:00,
2013-10-14 23:36:00,60.1,49.1,30.24,NNW,338,0.0,0.0,67,0.00,,BKN250,2.99,VWS V14.01,2013-10-15 03:36:00,
2013-10-14 23:41:00,60.1,49.1,30.24,NNW,338,0.0,0.0,67,0.00,,BKN250,2.99,VWS V14.01,2013-10-15 03:41:00,
2013-10-14 23:46:00,59.9,49.3,30.24,NNW,338,0.0,0.0,68,0.00,,BKN250,2.99,VWS V14.01,2013-10-15 03:46:00,
2013-10-14 23:51:00,59.9,49.3,30.24,NNW,338,0.0,0.0,68,0.00,,BKN250,2.99,VWS V14.01,2013-10-15 03:51:00,
2013-10-14 23:56:00,59.9,49.3,30.24,NNW,338,0.0,0.0,68,0.00,,BKN250,2.99,VWS V14.01,2013-10-15 03:56:00,